createdAt,value
2023-03-23T15:59:19.198Z,98304.31
2023-03-23T16:01:48.397Z,98304.66
2023-03-23T16:04:17.818Z,98307.84
2023-03-23T16:06:46.071Z,98294.56
2023-03-23T16:09:16.092Z,98297.59
2023-03-23T16:11:44.127Z,98300.34
2023-03-23T16:14:13.144Z,98304.03
2023-03-23T16:16:43.594Z,98291.00
2023-03-23T16:19:12.637Z,98300.53
2023-03-23T16:21:40.313Z,98298.63
2023-03-23T16:24:08.801Z,98304.03
2023-03-23T16:26:36.593Z,98311.03
2023-03-23T16:29:16.925Z,98314.00
2023-03-23T16:31:49.466Z,98303.63
2023-03-23T16:34:17.103Z,98295.59
2023-03-23T16:36:44.728Z,98300.88
2023-03-23T16:39:13.230Z,98300.88
2023-03-23T16:41:41.562Z,98299.41
2023-03-23T16:44:09.306Z,98293.34
2023-03-23T16:46:36.977Z,98305.53
2023-03-23T16:49:06.014Z,98299.50
2023-03-23T16:51:33.622Z,98303.63
2023-03-23T16:54:01.336Z,98286.97
2023-03-23T16:56:28.972Z,98277.56
2023-03-23T16:58:56.550Z,98277.13
2023-03-23T17:01:24.165Z,98279.03
2023-03-23T17:03:51.925Z,98276.19
2023-03-23T17:06:21.227Z,98277.13
2023-03-23T17:08:48.948Z,98277.97
2023-03-23T17:11:16.613Z,98279.25
2023-03-23T17:13:44.220Z,98273.44
2023-03-23T17:16:11.877Z,98281.34
2023-03-23T17:18:39.560Z,98278.72
2023-03-23T17:21:07.973Z,98279.03
2023-03-23T17:23:37.060Z,98280.84
2023-03-23T17:26:05.359Z,98279.22
2023-03-23T17:28:33.028Z,98282.72
2023-03-23T17:31:00.682Z,98281.34
2023-03-23T17:33:28.371Z,98271.91
2023-03-23T17:35:56.161Z,98283.75
2023-03-23T17:38:24.292Z,98277.41
2023-03-23T17:40:58.908Z,98286.50
2023-03-23T17:43:26.468Z,98289.34
2023-03-23T17:45:54.313Z,98284.06
2023-03-23T17:48:22.972Z,98285.28
2023-03-23T17:50:51.249Z,98286.94
2023-03-23T17:53:19.427Z,98287.03
2023-03-23T17:55:47.137Z,98291.03
2023-03-23T17:58:16.647Z,98284.31
2023-03-23T18:00:44.487Z,98282.91
2023-03-23T18:03:12.161Z,98298.41
2023-03-23T18:05:39.844Z,98291.38
2023-03-23T18:08:08.107Z,98281.59
2023-03-23T18:10:38.721Z,98288.88
2023-03-23T18:13:07.394Z,98293.22
2023-03-23T18:15:37.332Z,98283.50
2023-03-23T18:18:06.648Z,98279.16
2023-03-23T18:20:34.250Z,98290.78
2023-03-23T18:23:03.527Z,98286.66
2023-03-23T18:25:31.527Z,98290.28
2023-03-23T18:28:04.923Z,98288.41
2023-03-23T18:30:33.861Z,98286.50
2023-03-23T18:33:02.818Z,98288.53
2023-03-23T18:35:31.105Z,98276.06
2023-03-23T18:37:58.982Z,98273.63
2023-03-23T18:40:26.568Z,98277.97
2023-03-23T18:42:54.117Z,98270.78
2023-03-23T18:45:21.856Z,98267.84
2023-03-23T18:47:49.964Z,98269.53
2023-03-23T18:50:19.943Z,98269.28
2023-03-23T18:52:47.846Z,98268.34
2023-03-23T18:55:15.380Z,98268.03
2023-03-23T18:57:42.900Z,98266.88
2023-03-23T19:00:11.682Z,98253.66
2023-03-23T19:02:39.958Z,98256.84
2023-03-23T19:05:08.607Z,98260.94
2023-03-23T19:07:38.143Z,98263.38
2023-03-23T19:10:06.340Z,98262.88
2023-03-23T19:12:33.931Z,98249.56
2023-03-23T19:15:01.752Z,98253.56
2023-03-23T19:17:29.326Z,98248.06
2023-03-23T19:22:25.516Z,98251.78
2023-03-23T19:24:54.445Z,98249.03
2023-03-23T19:27:22.128Z,98240.03
2023-03-23T19:29:49.755Z,98245.63
2023-03-23T19:32:17.292Z,98248.16
2023-03-23T19:37:12.645Z,98238.56
2023-03-23T19:39:42.543Z,98230.31
2023-03-23T19:42:16.623Z,98237.19
2023-03-23T19:44:44.224Z,98234.56
2023-03-23T19:47:12.252Z,98231.81
2023-03-23T19:49:40.416Z,98222.91
2023-03-23T19:52:12.707Z,98220.88
2023-03-23T19:54:42.291Z,98227.44
2023-03-23T19:57:10.917Z,98228.81
2023-03-23T19:59:39.902Z,98229.44
2023-03-23T20:02:08.030Z,98225.66
2023-03-23T20:04:36.349Z,98218.44
2023-03-23T20:07:07.385Z,98219.38
2023-03-23T20:09:35.741Z,98211.47
2023-03-23T20:12:04.906Z,98214.72
2023-03-23T20:14:32.668Z,98220.66
2023-03-23T20:17:02.455Z,98209.97
2023-03-23T20:19:30.067Z,98210.81
2023-03-23T20:21:57.598Z,98213.16
2023-03-23T20:24:25.445Z,98218.22
2023-03-23T20:26:53.261Z,98215.38
2023-03-23T20:29:20.974Z,98223.59
2023-03-23T20:31:50.740Z,98209.94
2023-03-23T20:34:28.817Z,98202.75
2023-03-23T20:36:57.710Z,98200.41
2023-03-23T20:39:26.830Z,98203.81
2023-03-23T20:41:58.801Z,98201.69
2023-03-23T20:44:29.379Z,98189.84
2023-03-23T20:46:57.580Z,98191.94
2023-03-23T20:49:27.835Z,98185.63
2023-03-23T20:51:55.710Z,98204.19
2023-03-23T20:54:26.012Z,98205.13
2023-03-23T20:56:56.145Z,98196.69
2023-03-23T20:59:23.873Z,98196.25
2023-03-23T21:01:51.719Z,98199.69
2023-03-23T21:04:22.801Z,98196.97
2023-03-23T21:06:52.061Z,98190.03
2023-03-23T21:09:20.557Z,98189.91
2023-03-23T21:11:48.805Z,98192.22
2023-03-23T21:14:16.540Z,98178.66
2023-03-23T21:16:44.400Z,98181.59
2023-03-23T21:19:13.511Z,98176.56
2023-03-23T21:21:56.780Z,98179.00
2023-03-23T21:24:28.472Z,98173.13
2023-03-23T21:26:57.558Z,98173.31
2023-03-23T21:29:25.485Z,98169.81
2023-03-23T21:32:05.270Z,98173.84
2023-03-23T21:34:35.975Z,98167.41
2023-03-23T21:37:03.558Z,98156.94
2023-03-23T21:39:33.551Z,98162.78
2023-03-23T21:42:02.553Z,98149.03
2023-03-23T21:44:30.167Z,98153.69
2023-03-23T21:46:58.159Z,98158.44
2023-03-23T21:49:25.800Z,98152.63
2023-03-23T21:51:53.371Z,98158.75
2023-03-23T21:54:21.274Z,98162.38
2023-03-23T21:56:50.370Z,98154.75
2023-03-23T21:59:17.992Z,98148.09
2023-03-23T22:01:45.577Z,98145.44
2023-03-23T22:04:13.245Z,98155.38
2023-03-23T22:06:42.378Z,98158.34
2023-03-23T22:09:10.841Z,98149.88
2023-03-23T22:11:39.441Z,98149.47
2023-03-23T22:14:09.132Z,98150.94
2023-03-23T22:16:37.102Z,98145.44
2023-03-23T22:19:05.014Z,98141.22
2023-03-23T22:21:32.962Z,98145.03
2023-03-23T22:24:01.851Z,98139.00
2023-03-23T22:26:31.273Z,98140.06
2023-03-23T22:29:00.144Z,98137.53
2023-03-23T22:31:32.499Z,98125.25
2023-03-23T22:34:02.173Z,98119.13
2023-03-23T22:36:33.971Z,98109.63
2023-03-23T22:39:02.441Z,98108.44
2023-03-23T22:41:33.923Z,98102.94
2023-03-23T22:44:01.902Z,98113.75
2023-03-23T22:46:31.020Z,98104.44
2023-03-23T22:48:58.808Z,98089.09
2023-03-23T22:51:26.629Z,98084.22
2023-03-23T22:53:55.595Z,98094.69
2023-03-23T22:56:25.079Z,98089.00
2023-03-23T22:58:53.280Z,98088.47
2023-03-23T23:01:22.625Z,98092.25
2023-03-23T23:03:51.823Z,98073.34
2023-03-23T23:06:21.172Z,98075.75
2023-03-23T23:08:50.004Z,98065.94
2023-03-23T23:11:19.415Z,98068.38
2023-03-23T23:13:47.790Z,98068.03
2023-03-23T23:16:17.172Z,98063.69
2023-03-23T23:18:46.476Z,98072.56
2023-03-23T23:21:19.513Z,98069.31
2023-03-23T23:23:47.667Z,98067.94
2023-03-23T23:26:16.476Z,98064.34
2023-03-23T23:28:44.969Z,98062.53
2023-03-23T23:31:26.205Z,98053.47
2023-03-23T23:33:54.814Z,98047.41
2023-03-23T23:36:27.572Z,98047.31
2023-03-23T23:38:55.212Z,98056.63
2023-03-23T23:41:23.397Z,98059.56
2023-03-23T23:43:51.138Z,98063.59
2023-03-23T23:46:18.947Z,98051.00
2023-03-23T23:48:47.375Z,98042.63
2023-03-23T23:51:16.466Z,98040.56
2023-03-23T23:53:46.761Z,98041.88
2023-03-23T23:56:15.435Z,98028.25
2023-03-23T23:58:43.096Z,98031.72
